sensor_id;sensor_type;location;lat;lon;timestamp;P1;durP1;ratioP1;P2;durP2;ratioP2
62123;SDS011;48110;47.532;19.078;2023-08-30T00:02:52;2.60;;;2.22;;
62123;SDS011;48110;47.532;19.078;2023-08-30T00:05:55;2.87;;;2.42;;
62123;SDS011;48110;47.532;19.078;2023-08-30T00:09:05;3.17;;;2.37;;
62123;SDS011;48110;47.532;19.078;2023-08-30T00:12:07;4.68;;;2.20;;
62123;SDS011;48110;47.532;19.078;2023-08-30T00:15:10;4.22;;;2.75;;
62123;SDS011;48110;47.532;19.078;2023-08-30T00:18:13;3.00;;;2.50;;
62123;SDS011;48110;47.532;19.078;2023-08-30T00:21:16;5.07;;;2.60;;
62123;SDS011;48110;47.532;19.078;2023-08-30T00:24:19;5.10;;;2.60;;
62123;SDS011;48110;47.532;19.078;2023-08-30T00:27:21;4.90;;;2.87;;
62123;SDS011;48110;47.532;19.078;2023-08-30T00:30:24;3.42;;;2.62;;
62123;SDS011;48110;47.532;19.078;2023-08-30T00:33:27;2.58;;;2.35;;
62123;SDS011;48110;47.532;19.078;2023-08-30T00:36:30;4.62;;;2.90;;
62123;SDS011;48110;47.532;19.078;2023-08-30T00:39:32;4.62;;;2.58;;
62123;SDS011;48110;47.532;19.078;2023-08-30T00:42:36;3.08;;;2.78;;
62123;SDS011;48110;47.532;19.078;2023-08-30T00:45:40;4.10;;;2.80;;
62123;SDS011;48110;47.532;19.078;2023-08-30T00:48:43;3.87;;;3.05;;
62123;SDS011;48110;47.532;19.078;2023-08-30T00:51:46;5.72;;;3.30;;
62123;SDS011;48110;47.532;19.078;2023-08-30T00:54:49;5.10;;;3.70;;
62123;SDS011;48110;47.532;19.078;2023-08-30T00:57:52;3.83;;;3.50;;
62123;SDS011;48110;47.532;19.078;2023-08-30T01:00:55;3.62;;;3.25;;
62123;SDS011;48110;47.532;19.078;2023-08-30T01:03:59;5.20;;;3.40;;
62123;SDS011;48110;47.532;19.078;2023-08-30T01:07:04;5.30;;;3.10;;
62123;SDS011;48110;47.532;19.078;2023-08-30T01:10:08;4.37;;;3.30;;
62123;SDS011;48110;47.532;19.078;2023-08-30T01:13:13;4.40;;;3.00;;
62123;SDS011;48110;47.532;19.078;2023-08-30T01:16:20;6.32;;;2.70;;
62123;SDS011;48110;47.532;19.078;2023-08-30T01:26:10;4.95;;;3.40;;
62123;SDS011;48110;47.532;19.078;2023-08-30T01:29:17;5.22;;;3.35;;
62123;SDS011;48110;47.532;19.078;2023-08-30T01:32:22;7.43;;;3.65;;
62123;SDS011;48110;47.532;19.078;2023-08-30T01:35:28;4.10;;;3.70;;
62123;SDS011;48110;47.532;19.078;2023-08-30T01:38:35;4.47;;;3.75;;
62123;SDS011;48110;47.532;19.078;2023-08-30T01:41:39;5.97;;;3.80;;
62123;SDS011;48110;47.532;19.078;2023-08-30T01:44:43;6.03;;;5.20;;
62123;SDS011;48110;47.532;19.078;2023-08-30T01:47:48;6.87;;;6.18;;
62123;SDS011;48110;47.532;19.078;2023-08-30T01:50:55;7.12;;;6.03;;
62123;SDS011;48110;47.532;19.078;2023-08-30T01:54:01;7.15;;;6.45;;
62123;SDS011;48110;47.532;19.078;2023-08-30T01:57:05;7.57;;;6.75;;
62123;SDS011;48110;47.532;19.078;2023-08-30T02:00:09;10.88;;;7.90;;
62123;SDS011;48110;47.532;19.078;2023-08-30T02:03:16;12.32;;;8.32;;
62123;SDS011;48110;47.532;19.078;2023-08-30T02:06:26;9.52;;;7.68;;
62123;SDS011;48110;47.532;19.078;2023-08-30T02:09:55;10.35;;;8.50;;
62123;SDS011;48110;47.532;19.078;2023-08-30T02:13:01;11.07;;;9.48;;
62123;SDS011;48110;47.532;19.078;2023-08-30T02:16:06;12.40;;;8.90;;
62123;SDS011;48110;47.532;19.078;2023-08-30T02:19:12;13.30;;;10.13;;
62123;SDS011;48110;47.532;19.078;2023-08-30T02:22:19;15.80;;;9.95;;
62123;SDS011;48110;47.532;19.078;2023-08-30T02:25:22;12.88;;;9.20;;
62123;SDS011;48110;47.532;19.078;2023-08-30T02:28:28;13.18;;;9.52;;
62123;SDS011;48110;47.532;19.078;2023-08-30T02:31:31;15.00;;;10.00;;
62123;SDS011;48110;47.532;19.078;2023-08-30T02:34:34;12.98;;;9.18;;
62123;SDS011;48110;47.532;19.078;2023-08-30T02:37:38;11.63;;;9.18;;
62123;SDS011;48110;47.532;19.078;2023-08-30T02:40:42;12.30;;;9.52;;
62123;SDS011;48110;47.532;19.078;2023-08-30T02:43:45;15.02;;;9.95;;
62123;SDS011;48110;47.532;19.078;2023-08-30T02:46:48;12.85;;;9.43;;
62123;SDS011;48110;47.532;19.078;2023-08-30T02:49:50;13.95;;;9.77;;
62123;SDS011;48110;47.532;19.078;2023-08-30T02:52:53;11.32;;;8.50;;
62123;SDS011;48110;47.532;19.078;2023-08-30T02:55:56;12.35;;;8.85;;
62123;SDS011;48110;47.532;19.078;2023-08-30T02:58:59;11.25;;;8.95;;
62123;SDS011;48110;47.532;19.078;2023-08-30T03:02:01;11.85;;;8.63;;
62123;SDS011;48110;47.532;19.078;2023-08-30T03:05:05;14.77;;;8.32;;
62123;SDS011;48110;47.532;19.078;2023-08-30T03:08:08;9.95;;;7.95;;
62123;SDS011;48110;47.532;19.078;2023-08-30T03:11:12;10.18;;;7.85;;
62123;SDS011;48110;47.532;19.078;2023-08-30T03:14:16;10.23;;;8.45;;
62123;SDS011;48110;47.532;19.078;2023-08-30T03:17:19;10.25;;;8.10;;
62123;SDS011;48110;47.532;19.078;2023-08-30T03:20:21;10.10;;;7.90;;
62123;SDS011;48110;47.532;19.078;2023-08-30T03:23:24;14.00;;;8.27;;
62123;SDS011;48110;47.532;19.078;2023-08-30T03:26:28;11.12;;;7.43;;
62123;SDS011;48110;47.532;19.078;2023-08-30T03:29:31;9.70;;;7.70;;
62123;SDS011;48110;47.532;19.078;2023-08-30T03:32:34;11.88;;;7.47;;
62123;SDS011;48110;47.532;19.078;2023-08-30T03:35:37;9.50;;;7.32;;
62123;SDS011;48110;47.532;19.078;2023-08-30T03:38:40;10.25;;;8.05;;
62123;SDS011;48110;47.532;19.078;2023-08-30T03:41:43;11.23;;;8.35;;
62123;SDS011;48110;47.532;19.078;2023-08-30T03:44:47;10.60;;;7.90;;
62123;SDS011;48110;47.532;19.078;2023-08-30T03:47:50;11.82;;;8.93;;
62123;SDS011;48110;47.532;19.078;2023-08-30T03:50:54;15.50;;;9.75;;
62123;SDS011;48110;47.532;19.078;2023-08-30T03:53:57;13.43;;;10.05;;
62123;SDS011;48110;47.532;19.078;2023-08-30T03:57:00;14.55;;;10.95;;
62123;SDS011;48110;47.532;19.078;2023-08-30T04:00:03;13.20;;;10.45;;
62123;SDS011;48110;47.532;19.078;2023-08-30T04:03:15;14.98;;;11.07;;
62123;SDS011;48110;47.532;19.078;2023-08-30T04:06:18;14.02;;;10.43;;
62123;SDS011;48110;47.532;19.078;2023-08-30T04:09:23;14.57;;;10.90;;
62123;SDS011;48110;47.532;19.078;2023-08-30T04:12:26;19.55;;;11.93;;
62123;SDS011;48110;47.532;19.078;2023-08-30T04:15:28;17.80;;;11.85;;
62123;SDS011;48110;47.532;19.078;2023-08-30T04:18:31;16.90;;;11.32;;
62123;SDS011;48110;47.532;19.078;2023-08-30T04:21:34;17.40;;;11.45;;
62123;SDS011;48110;47.532;19.078;2023-08-30T04:24:37;15.73;;;11.23;;
62123;SDS011;48110;47.532;19.078;2023-08-30T04:27:39;15.88;;;11.63;;
62123;SDS011;48110;47.532;19.078;2023-08-30T04:30:42;18.73;;;12.02;;
62123;SDS011;48110;47.532;19.078;2023-08-30T04:33:46;15.95;;;11.15;;
62123;SDS011;48110;47.532;19.078;2023-08-30T04:36:49;16.33;;;11.68;;
62123;SDS011;48110;47.532;19.078;2023-08-30T04:39:51;14.60;;;11.43;;
62123;SDS011;48110;47.532;19.078;2023-08-30T04:42:57;19.25;;;12.10;;
62123;SDS011;48110;47.532;19.078;2023-08-30T04:46:00;18.45;;;11.50;;
62123;SDS011;48110;47.532;19.078;2023-08-30T04:49:03;17.58;;;11.73;;
62123;SDS011;48110;47.532;19.078;2023-08-30T04:52:07;18.85;;;11.90;;
62123;SDS011;48110;47.532;19.078;2023-08-30T04:55:10;16.05;;;11.35;;
62123;SDS011;48110;47.532;19.078;2023-08-30T04:58:13;14.57;;;10.90;;
62123;SDS011;48110;47.532;19.078;2023-08-30T05:01:16;16.42;;;11.35;;
62123;SDS011;48110;47.532;19.078;2023-08-30T05:04:19;16.35;;;11.15;;
62123;SDS011;48110;47.532;19.078;2023-08-30T05:07:22;14.85;;;11.07;;
62123;SDS011;48110;47.532;19.078;2023-08-30T05:10:25;17.17;;;12.55;;
62123;SDS011;48110;47.532;19.078;2023-08-30T05:13:29;16.02;;;12.00;;
62123;SDS011;48110;47.532;19.078;2023-08-30T05:16:33;17.15;;;11.55;;
62123;SDS011;48110;47.532;19.078;2023-08-30T05:19:37;17.60;;;12.23;;
62123;SDS011;48110;47.532;19.078;2023-08-30T05:22:39;16.15;;;11.75;;
62123;SDS011;48110;47.532;19.078;2023-08-30T05:25:43;14.77;;;11.18;;
62123;SDS011;48110;47.532;19.078;2023-08-30T05:28:45;14.63;;;11.05;;
62123;SDS011;48110;47.532;19.078;2023-08-30T05:31:48;16.35;;;11.90;;
62123;SDS011;48110;47.532;19.078;2023-08-30T05:34:53;15.63;;;11.85;;
62123;SDS011;48110;47.532;19.078;2023-08-30T05:37:58;16.52;;;11.40;;
62123;SDS011;48110;47.532;19.078;2023-08-30T05:41:01;14.82;;;11.02;;
62123;SDS011;48110;47.532;19.078;2023-08-30T05:44:04;19.27;;;11.55;;
62123;SDS011;48110;47.532;19.078;2023-08-30T05:47:08;14.80;;;11.10;;
62123;SDS011;48110;47.532;19.078;2023-08-30T05:50:11;15.98;;;11.07;;
62123;SDS011;48110;47.532;19.078;2023-08-30T05:53:13;13.95;;;10.60;;
62123;SDS011;48110;47.532;19.078;2023-08-30T05:56:16;14.77;;;11.23;;
62123;SDS011;48110;47.532;19.078;2023-08-30T05:59:21;13.75;;;10.40;;
62123;SDS011;48110;47.532;19.078;2023-08-30T06:02:24;16.42;;;11.43;;
62123;SDS011;48110;47.532;19.078;2023-08-30T06:05:26;13.65;;;10.85;;
62123;SDS011;48110;47.532;19.078;2023-08-30T06:08:29;15.00;;;10.82;;
62123;SDS011;48110;47.532;19.078;2023-08-30T06:11:32;12.07;;;10.55;;
62123;SDS011;48110;47.532;19.078;2023-08-30T06:14:35;12.90;;;10.00;;
62123;SDS011;48110;47.532;19.078;2023-08-30T06:17:38;14.10;;;9.68;;
62123;SDS011;48110;47.532;19.078;2023-08-30T06:20:41;13.62;;;9.50;;
62123;SDS011;48110;47.532;19.078;2023-08-30T06:23:44;13.35;;;9.15;;
62123;SDS011;48110;47.532;19.078;2023-08-30T06:26:47;13.25;;;9.32;;
62123;SDS011;48110;47.532;19.078;2023-08-30T06:29:50;12.77;;;8.38;;
62123;SDS011;48110;47.532;19.078;2023-08-30T06:32:53;13.82;;;8.40;;
62123;SDS011;48110;47.532;19.078;2023-08-30T06:35:58;9.18;;;8.10;;
62123;SDS011;48110;47.532;19.078;2023-08-30T06:39:00;9.77;;;7.87;;
62123;SDS011;48110;47.532;19.078;2023-08-30T06:42:04;12.18;;;7.90;;
62123;SDS011;48110;47.532;19.078;2023-08-30T06:45:10;11.50;;;8.02;;
62123;SDS011;48110;47.532;19.078;2023-08-30T06:48:14;9.90;;;8.43;;
62123;SDS011;48110;47.532;19.078;2023-08-30T06:51:18;11.48;;;8.07;;
62123;SDS011;48110;47.532;19.078;2023-08-30T06:54:21;9.77;;;7.50;;
62123;SDS011;48110;47.532;19.078;2023-08-30T06:57:24;9.45;;;7.00;;
62123;SDS011;48110;47.532;19.078;2023-08-30T07:00:28;10.40;;;6.97;;
62123;SDS011;48110;47.532;19.078;2023-08-30T07:03:32;8.57;;;7.45;;
62123;SDS011;48110;47.532;19.078;2023-08-30T07:06:35;9.63;;;7.53;;
62123;SDS011;48110;47.532;19.078;2023-08-30T07:09:40;8.15;;;6.07;;
62123;SDS011;48110;47.532;19.078;2023-08-30T07:12:44;6.47;;;5.37;;
62123;SDS011;48110;47.532;19.078;2023-08-30T07:15:50;7.78;;;5.87;;
62123;SDS011;48110;47.532;19.078;2023-08-30T07:18:54;10.40;;;6.55;;
62123;SDS011;48110;47.532;19.078;2023-08-30T07:21:57;8.32;;;7.50;;
62123;SDS011;48110;47.532;19.078;2023-08-30T07:25:00;10.35;;;6.97;;
62123;SDS011;48110;47.532;19.078;2023-08-30T07:28:05;9.32;;;6.25;;
62123;SDS011;48110;47.532;19.078;2023-08-30T07:31:12;9.30;;;6.62;;
62123;SDS011;48110;47.532;19.078;2023-08-30T07:34:21;11.30;;;7.10;;
62123;SDS011;48110;47.532;19.078;2023-08-30T07:37:25;10.90;;;6.85;;
62123;SDS011;48110;47.532;19.078;2023-08-30T07:40:30;9.52;;;7.22;;
62123;SDS011;48110;47.532;19.078;2023-08-30T07:43:34;9.27;;;6.47;;
62123;SDS011;48110;47.532;19.078;2023-08-30T07:46:37;10.52;;;6.70;;
62123;SDS011;48110;47.532;19.078;2023-08-30T07:49:41;9.18;;;6.75;;
62123;SDS011;48110;47.532;19.078;2023-08-30T07:52:44;12.95;;;6.55;;
62123;SDS011;48110;47.532;19.078;2023-08-30T07:55:49;9.95;;;6.40;;
62123;SDS011;48110;47.532;19.078;2023-08-30T07:58:53;8.55;;;6.85;;
62123;SDS011;48110;47.532;19.078;2023-08-30T08:01:57;10.70;;;7.43;;
62123;SDS011;48110;47.532;19.078;2023-08-30T08:05:00;10.73;;;7.07;;
62123;SDS011;48110;47.532;19.078;2023-08-30T08:08:03;10.55;;;7.35;;
62123;SDS011;48110;47.532;19.078;2023-08-30T08:11:07;12.55;;;7.37;;
62123;SDS011;48110;47.532;19.078;2023-08-30T08:14:10;9.05;;;6.32;;
62123;SDS011;48110;47.532;19.078;2023-08-30T08:17:16;10.20;;;6.90;;
62123;SDS011;48110;47.532;19.078;2023-08-30T08:20:19;13.40;;;7.65;;
62123;SDS011;48110;47.532;19.078;2023-08-30T08:23:22;9.80;;;7.47;;
62123;SDS011;48110;47.532;19.078;2023-08-30T08:26:25;12.63;;;7.10;;
62123;SDS011;48110;47.532;19.078;2023-08-30T08:29:28;11.02;;;7.12;;
62123;SDS011;48110;47.532;19.078;2023-08-30T08:32:31;8.75;;;6.87;;
62123;SDS011;48110;47.532;19.078;2023-08-30T08:35:34;9.43;;;7.20;;
62123;SDS011;48110;47.532;19.078;2023-08-30T08:38:37;9.43;;;7.47;;
62123;SDS011;48110;47.532;19.078;2023-08-30T08:41:41;11.30;;;7.70;;
62123;SDS011;48110;47.532;19.078;2023-08-30T08:44:54;8.50;;;7.03;;
62123;SDS011;48110;47.532;19.078;2023-08-30T08:48:02;8.60;;;6.62;;
62123;SDS011;48110;47.532;19.078;2023-08-30T08:51:06;8.43;;;6.50;;
62123;SDS011;48110;47.532;19.078;2023-08-30T08:54:10;10.77;;;7.62;;
62123;SDS011;48110;47.532;19.078;2023-08-30T08:57:14;12.50;;;6.82;;
62123;SDS011;48110;47.532;19.078;2023-08-30T09:00:17;9.23;;;6.75;;
62123;SDS011;48110;47.532;19.078;2023-08-30T09:03:19;9.80;;;6.85;;
62123;SDS011;48110;47.532;19.078;2023-08-30T09:06:24;8.00;;;6.07;;
62123;SDS011;48110;47.532;19.078;2023-08-30T09:09:27;10.40;;;6.32;;
62123;SDS011;48110;47.532;19.078;2023-08-30T09:12:34;9.55;;;6.97;;
62123;SDS011;48110;47.532;19.078;2023-08-30T09:15:38;11.52;;;7.10;;
62123;SDS011;48110;47.532;19.078;2023-08-30T09:18:41;9.90;;;6.93;;
62123;SDS011;48110;47.532;19.078;2023-08-30T09:21:52;11.65;;;7.20;;
62123;SDS011;48110;47.532;19.078;2023-08-30T09:24:56;10.00;;;7.25;;
62123;SDS011;48110;47.532;19.078;2023-08-30T09:28:01;11.65;;;7.20;;
62123;SDS011;48110;47.532;19.078;2023-08-30T09:31:06;11.60;;;6.93;;
62123;SDS011;48110;47.532;19.078;2023-08-30T09:34:26;11.43;;;7.15;;
62123;SDS011;48110;47.532;19.078;2023-08-30T09:37:29;9.32;;;7.07;;
62123;SDS011;48110;47.532;19.078;2023-08-30T09:40:32;8.52;;;6.37;;
62123;SDS011;48110;47.532;19.078;2023-08-30T09:43:41;8.90;;;6.40;;
62123;SDS011;48110;47.532;19.078;2023-08-30T09:46:55;7.77;;;6.20;;
62123;SDS011;48110;47.532;19.078;2023-08-30T09:49:59;8.98;;;5.93;;
62123;SDS011;48110;47.532;19.078;2023-08-30T09:53:06;10.20;;;6.22;;
62123;SDS011;48110;47.532;19.078;2023-08-30T09:56:14;8.18;;;5.30;;
62123;SDS011;48110;47.532;19.078;2023-08-30T09:59:18;6.68;;;5.05;;
62123;SDS011;48110;47.532;19.078;2023-08-30T10:02:22;8.05;;;5.12;;
62123;SDS011;48110;47.532;19.078;2023-08-30T10:05:26;8.45;;;5.37;;
62123;SDS011;48110;47.532;19.078;2023-08-30T10:08:29;8.15;;;5.70;;
62123;SDS011;48110;47.532;19.078;2023-08-30T10:11:38;7.72;;;5.30;;
62123;SDS011;48110;47.532;19.078;2023-08-30T10:14:41;7.62;;;5.40;;
62123;SDS011;48110;47.532;19.078;2023-08-30T10:17:45;8.48;;;5.40;;
62123;SDS011;48110;47.532;19.078;2023-08-30T10:20:48;7.50;;;5.47;;
62123;SDS011;48110;47.532;19.078;2023-08-30T10:23:55;11.60;;;5.40;;
62123;SDS011;48110;47.532;19.078;2023-08-30T10:27:00;6.93;;;4.45;;
62123;SDS011;48110;47.532;19.078;2023-08-30T10:30:08;8.55;;;5.40;;
62123;SDS011;48110;47.532;19.078;2023-08-30T10:33:13;8.95;;;5.35;;
62123;SDS011;48110;47.532;19.078;2023-08-30T10:36:25;7.28;;;5.18;;
62123;SDS011;48110;47.532;19.078;2023-08-30T10:39:38;7.20;;;4.95;;
62123;SDS011;48110;47.532;19.078;2023-08-30T10:42:42;6.80;;;4.70;;
62123;SDS011;48110;47.532;19.078;2023-08-30T10:45:45;7.20;;;4.45;;
62123;SDS011;48110;47.532;19.078;2023-08-30T10:49:13;5.72;;;4.18;;
62123;SDS011;48110;47.532;19.078;2023-08-30T10:52:19;7.40;;;4.30;;
62123;SDS011;48110;47.532;19.078;2023-08-30T10:55:22;5.80;;;4.30;;
62123;SDS011;48110;47.532;19.078;2023-08-30T10:58:26;8.65;;;4.43;;
62123;SDS011;48110;47.532;19.078;2023-08-30T11:01:29;4.90;;;3.80;;
62123;SDS011;48110;47.532;19.078;2023-08-30T11:04:32;4.68;;;3.72;;
62123;SDS011;48110;47.532;19.078;2023-08-30T11:07:35;9.05;;;3.80;;
62123;SDS011;48110;47.532;19.078;2023-08-30T11:10:38;6.60;;;3.65;;
62123;SDS011;48110;47.532;19.078;2023-08-30T11:13:45;6.43;;;3.35;;
62123;SDS011;48110;47.532;19.078;2023-08-30T11:16:48;5.15;;;3.35;;
62123;SDS011;48110;47.532;19.078;2023-08-30T11:19:51;4.95;;;3.20;;
62123;SDS011;48110;47.532;19.078;2023-08-30T11:23:00;5.97;;;2.72;;
62123;SDS011;48110;47.532;19.078;2023-08-30T11:26:05;4.70;;;2.90;;
62123;SDS011;48110;47.532;19.078;2023-08-30T11:29:09;5.50;;;2.78;;
62123;SDS011;48110;47.532;19.078;2023-08-30T11:32:12;4.22;;;2.60;;
62123;SDS011;48110;47.532;19.078;2023-08-30T11:35:15;4.78;;;2.17;;
62123;SDS011;48110;47.532;19.078;2023-08-30T11:38:19;2.60;;;2.08;;
62123;SDS011;48110;47.532;19.078;2023-08-30T11:41:22;4.80;;;2.45;;
62123;SDS011;48110;47.532;19.078;2023-08-30T11:44:29;2.83;;;2.30;;
62123;SDS011;48110;47.532;19.078;2023-08-30T11:47:32;4.57;;;2.30;;
62123;SDS011;48110;47.532;19.078;2023-08-30T11:50:36;8.68;;;2.60;;
62123;SDS011;48110;47.532;19.078;2023-08-30T11:53:49;5.37;;;2.70;;
62123;SDS011;48110;47.532;19.078;2023-08-30T11:56:53;6.47;;;2.78;;
62123;SDS011;48110;47.532;19.078;2023-08-30T11:59:56;4.85;;;2.72;;
62123;SDS011;48110;47.532;19.078;2023-08-30T12:03:12;8.77;;;3.28;;
62123;SDS011;48110;47.532;19.078;2023-08-30T12:06:16;10.82;;;3.05;;
62123;SDS011;48110;47.532;19.078;2023-08-30T12:09:19;5.15;;;3.00;;
62123;SDS011;48110;47.532;19.078;2023-08-30T12:12:25;7.22;;;3.20;;
62123;SDS011;48110;47.532;19.078;2023-08-30T12:15:32;4.90;;;3.30;;
62123;SDS011;48110;47.532;19.078;2023-08-30T12:18:36;6.00;;;3.10;;
62123;SDS011;48110;47.532;19.078;2023-08-30T12:21:40;7.20;;;3.50;;
62123;SDS011;48110;47.532;19.078;2023-08-30T12:24:44;7.03;;;3.12;;
62123;SDS011;48110;47.532;19.078;2023-08-30T12:27:47;10.90;;;3.30;;
62123;SDS011;48110;47.532;19.078;2023-08-30T12:30:50;8.27;;;3.30;;
62123;SDS011;48110;47.532;19.078;2023-08-30T12:33:53;7.43;;;3.12;;
62123;SDS011;48110;47.532;19.078;2023-08-30T12:36:57;5.00;;;2.95;;
62123;SDS011;48110;47.532;19.078;2023-08-30T12:40:01;4.50;;;3.00;;
62123;SDS011;48110;47.532;19.078;2023-08-30T12:43:08;4.53;;;3.00;;
62123;SDS011;48110;47.532;19.078;2023-08-30T12:46:11;5.62;;;2.87;;
62123;SDS011;48110;47.532;19.078;2023-08-30T12:49:14;4.80;;;3.45;;
62123;SDS011;48110;47.532;19.078;2023-08-30T12:52:17;3.85;;;2.60;;
62123;SDS011;48110;47.532;19.078;2023-08-30T12:55:20;3.80;;;2.60;;
62123;SDS011;48110;47.532;19.078;2023-08-30T12:58:22;4.50;;;2.55;;
62123;SDS011;48110;47.532;19.078;2023-08-30T13:01:28;4.28;;;2.55;;
62123;SDS011;48110;47.532;19.078;2023-08-30T13:04:30;3.75;;;2.03;;
62123;SDS011;48110;47.532;19.078;2023-08-30T13:07:33;7.45;;;2.70;;
62123;SDS011;48110;47.532;19.078;2023-08-30T13:10:37;14.07;;;2.60;;
62123;SDS011;48110;47.532;19.078;2023-08-30T13:13:40;18.45;;;2.70;;
62123;SDS011;48110;47.532;19.078;2023-08-30T13:16:42;4.07;;;2.47;;
62123;SDS011;48110;47.532;19.078;2023-08-30T13:19:45;3.78;;;2.10;;
62123;SDS011;48110;47.532;19.078;2023-08-30T13:22:48;5.22;;;2.10;;
62123;SDS011;48110;47.532;19.078;2023-08-30T13:25:51;3.30;;;2.20;;
62123;SDS011;48110;47.532;19.078;2023-08-30T13:28:54;4.07;;;2.08;;
62123;SDS011;48110;47.532;19.078;2023-08-30T13:31:57;2.95;;;2.10;;
62123;SDS011;48110;47.532;19.078;2023-08-30T13:34:59;3.80;;;2.37;;
62123;SDS011;48110;47.532;19.078;2023-08-30T13:38:02;3.10;;;2.30;;
62123;SDS011;48110;47.532;19.078;2023-08-30T13:41:06;2.75;;;2.00;;
62123;SDS011;48110;47.532;19.078;2023-08-30T13:44:10;4.97;;;1.95;;
62123;SDS011;48110;47.532;19.078;2023-08-30T13:47:13;5.07;;;2.00;;
62123;SDS011;48110;47.532;19.078;2023-08-30T13:50:15;2.90;;;2.12;;
62123;SDS011;48110;47.532;19.078;2023-08-30T13:53:19;2.22;;;1.90;;
62123;SDS011;48110;47.532;19.078;2023-08-30T13:56:22;3.65;;;2.15;;
62123;SDS011;48110;47.532;19.078;2023-08-30T13:59:25;4.72;;;1.98;;
62123;SDS011;48110;47.532;19.078;2023-08-30T14:02:29;2.25;;;2.03;;
62123;SDS011;48110;47.532;19.078;2023-08-30T14:05:32;4.05;;;2.30;;
62123;SDS011;48110;47.532;19.078;2023-08-30T14:08:35;4.22;;;2.37;;
62123;SDS011;48110;47.532;19.078;2023-08-30T14:11:38;5.15;;;2.17;;
62123;SDS011;48110;47.532;19.078;2023-08-30T14:14:40;4.03;;;2.10;;
62123;SDS011;48110;47.532;19.078;2023-08-30T14:17:43;2.53;;;2.00;;
62123;SDS011;48110;47.532;19.078;2023-08-30T14:20:46;4.12;;;2.17;;
62123;SDS011;48110;47.532;19.078;2023-08-30T14:23:51;4.05;;;1.85;;
62123;SDS011;48110;47.532;19.078;2023-08-30T14:26:53;8.90;;;1.87;;
62123;SDS011;48110;47.532;19.078;2023-08-30T14:29:56;4.15;;;1.77;;
62123;SDS011;48110;47.532;19.078;2023-08-30T14:32:59;6.37;;;1.87;;
62123;SDS011;48110;47.532;19.078;2023-08-30T14:36:02;4.25;;;2.05;;
62123;SDS011;48110;47.532;19.078;2023-08-30T14:39:05;5.35;;;2.30;;
62123;SDS011;48110;47.532;19.078;2023-08-30T14:42:08;4.28;;;2.05;;
62123;SDS011;48110;47.532;19.078;2023-08-30T14:45:10;4.90;;;2.00;;
62123;SDS011;48110;47.532;19.078;2023-08-30T14:48:13;5.30;;;2.65;;
62123;SDS011;48110;47.532;19.078;2023-08-30T14:51:16;6.10;;;2.25;;
62123;SDS011;48110;47.532;19.078;2023-08-30T14:54:19;4.57;;;2.20;;
62123;SDS011;48110;47.532;19.078;2023-08-30T14:57:22;3.80;;;2.25;;
62123;SDS011;48110;47.532;19.078;2023-08-30T15:00:27;5.50;;;2.40;;
62123;SDS011;48110;47.532;19.078;2023-08-30T15:03:30;4.30;;;2.10;;
62123;SDS011;48110;47.532;19.078;2023-08-30T15:06:33;3.95;;;2.08;;
62123;SDS011;48110;47.532;19.078;2023-08-30T15:09:36;3.92;;;2.20;;
62123;SDS011;48110;47.532;19.078;2023-08-30T15:12:39;7.43;;;1.90;;
62123;SDS011;48110;47.532;19.078;2023-08-30T15:15:42;4.57;;;1.80;;
62123;SDS011;48110;47.532;19.078;2023-08-30T15:18:45;3.47;;;1.60;;
62123;SDS011;48110;47.532;19.078;2023-08-30T15:21:48;4.90;;;1.70;;
62123;SDS011;48110;47.532;19.078;2023-08-30T15:24:51;3.28;;;1.33;;
62123;SDS011;48110;47.532;19.078;2023-08-30T15:27:54;1.92;;;1.30;;
62123;SDS011;48110;47.532;19.078;2023-08-30T15:30:56;2.83;;;1.50;;
62123;SDS011;48110;47.532;19.078;2023-08-30T15:33:59;3.00;;;1.50;;
62123;SDS011;48110;47.532;19.078;2023-08-30T15:37:03;1.40;;;1.10;;
62123;SDS011;48110;47.532;19.078;2023-08-30T15:40:07;3.08;;;1.30;;
62123;SDS011;48110;47.532;19.078;2023-08-30T15:43:11;4.50;;;1.27;;
62123;SDS011;48110;47.532;19.078;2023-08-30T15:46:14;2.55;;;1.40;;
62123;SDS011;48110;47.532;19.078;2023-08-30T15:49:18;1.70;;;1.30;;
62123;SDS011;48110;47.532;19.078;2023-08-30T15:52:20;2.08;;;1.20;;
62123;SDS011;48110;47.532;19.078;2023-08-30T15:55:23;2.40;;;1.27;;
62123;SDS011;48110;47.532;19.078;2023-08-30T15:58:30;2.17;;;1.20;;
62123;SDS011;48110;47.532;19.078;2023-08-30T16:01:34;4.22;;;1.30;;
62123;SDS011;48110;47.532;19.078;2023-08-30T16:04:37;2.03;;;1.23;;
62123;SDS011;48110;47.532;19.078;2023-08-30T16:07:39;4.37;;;1.50;;
62123;SDS011;48110;47.532;19.078;2023-08-30T16:10:43;2.17;;;1.30;;
62123;SDS011;48110;47.532;19.078;2023-08-30T16:13:45;2.20;;;1.20;;
62123;SDS011;48110;47.532;19.078;2023-08-30T16:16:49;2.70;;;1.42;;
62123;SDS011;48110;47.532;19.078;2023-08-30T16:19:52;1.60;;;1.02;;
62123;SDS011;48110;47.532;19.078;2023-08-30T16:22:55;2.78;;;1.42;;
62123;SDS011;48110;47.532;19.078;2023-08-30T16:25:58;2.28;;;1.20;;
62123;SDS011;48110;47.532;19.078;2023-08-30T16:29:02;3.33;;;1.17;;
62123;SDS011;48110;47.532;19.078;2023-08-30T16:32:07;1.20;;;1.10;;
62123;SDS011;48110;47.532;19.078;2023-08-30T16:35:10;1.80;;;1.10;;
62123;SDS011;48110;47.532;19.078;2023-08-30T16:38:13;2.67;;;1.48;;
62123;SDS011;48110;47.532;19.078;2023-08-30T16:41:17;2.28;;;1.20;;
62123;SDS011;48110;47.532;19.078;2023-08-30T16:44:20;1.85;;;1.20;;
62123;SDS011;48110;47.532;19.078;2023-08-30T16:47:23;2.70;;;1.30;;
62123;SDS011;48110;47.532;19.078;2023-08-30T16:50:26;3.50;;;1.20;;
62123;SDS011;48110;47.532;19.078;2023-08-30T16:53:31;1.58;;;1.35;;
62123;SDS011;48110;47.532;19.078;2023-08-30T16:56:36;3.28;;;1.40;;
62123;SDS011;48110;47.532;19.078;2023-08-30T16:59:39;1.77;;;1.40;;
62123;SDS011;48110;47.532;19.078;2023-08-30T17:02:42;1.80;;;1.33;;
62123;SDS011;48110;47.532;19.078;2023-08-30T17:05:46;1.77;;;1.20;;
62123;SDS011;48110;47.532;19.078;2023-08-30T17:08:50;2.75;;;1.30;;
62123;SDS011;48110;47.532;19.078;2023-08-30T17:11:53;2.95;;;1.33;;
62123;SDS011;48110;47.532;19.078;2023-08-30T17:14:56;4.82;;;1.60;;
62123;SDS011;48110;47.532;19.078;2023-08-30T17:17:59;3.37;;;1.50;;
62123;SDS011;48110;47.532;19.078;2023-08-30T17:21:03;2.72;;;1.50;;
62123;SDS011;48110;47.532;19.078;2023-08-30T17:24:12;2.78;;;1.40;;
62123;SDS011;48110;47.532;19.078;2023-08-30T17:27:15;2.22;;;1.30;;
62123;SDS011;48110;47.532;19.078;2023-08-30T17:30:18;2.22;;;1.40;;
62123;SDS011;48110;47.532;19.078;2023-08-30T17:33:23;2.80;;;1.35;;
62123;SDS011;48110;47.532;19.078;2023-08-30T17:36:26;2.62;;;1.50;;
62123;SDS011;48110;47.532;19.078;2023-08-30T17:39:29;3.85;;;1.42;;
62123;SDS011;48110;47.532;19.078;2023-08-30T17:42:34;2.97;;;1.70;;
62123;SDS011;48110;47.532;19.078;2023-08-30T17:45:37;2.55;;;1.35;;
62123;SDS011;48110;47.532;19.078;2023-08-30T17:48:43;2.58;;;1.40;;
62123;SDS011;48110;47.532;19.078;2023-08-30T17:51:48;4.25;;;1.67;;
62123;SDS011;48110;47.532;19.078;2023-08-30T17:54:52;5.87;;;1.60;;
62123;SDS011;48110;47.532;19.078;2023-08-30T17:57:55;1.65;;;1.50;;
62123;SDS011;48110;47.532;19.078;2023-08-30T18:00:59;4.15;;;1.58;;
62123;SDS011;48110;47.532;19.078;2023-08-30T18:04:02;2.12;;;1.60;;
62123;SDS011;48110;47.532;19.078;2023-08-30T18:07:07;2.92;;;1.70;;
62123;SDS011;48110;47.532;19.078;2023-08-30T18:10:13;2.03;;;1.52;;
62123;SDS011;48110;47.532;19.078;2023-08-30T18:13:17;3.42;;;1.75;;